createdAt,value
2022-10-11T05:01:12.310Z,4.1
2022-10-11T05:07:23.796Z,4.3
2022-10-11T05:13:24.273Z,5.1
2022-10-11T05:19:26.075Z,4.6
2022-10-11T05:25:22.952Z,4.1
2022-10-11T05:31:29.714Z,4.4
2022-10-11T05:37:27.223Z,4.9
2022-10-11T05:43:19.210Z,4.8
2022-10-11T05:49:13.153Z,4.7
2022-10-11T05:55:12.175Z,5.6
2022-10-11T06:01:16.091Z,5.7
2022-10-11T06:07:10.405Z,7.3
2022-10-11T06:13:06.963Z,7.9
2022-10-11T06:19:24.366Z,9
2022-10-11T06:25:28.901Z,12.2
2022-10-11T06:31:26.509Z,11.9
2022-10-11T06:37:30.250Z,10.7
2022-10-11T06:43:30.544Z,12.8
2022-10-11T06:49:33.830Z,19.2
2022-10-11T07:02:32.634Z,22.6
2022-10-11T07:08:31.227Z,18.6
2022-10-11T07:14:56.586Z,18.3
2022-10-11T07:27:28.462Z,28.5
2022-10-11T07:39:53.766Z,28.7
2022-10-11T07:46:00.542Z,29.2
2022-10-11T07:58:15.888Z,26.7
2022-10-11T08:04:07.708Z,28.1
2022-10-11T08:36:26.635Z,18.8
2022-10-11T08:42:31.069Z,15.6
2022-10-11T08:54:54.581Z,14.4
2022-10-11T09:07:51.350Z,13
2022-10-11T09:14:01.465Z,14.1
2022-10-11T09:20:33.397Z,13.6
2022-10-11T09:39:09.571Z,14.1
2022-10-11T09:45:02.384Z,12.1
2022-10-11T09:50:57.965Z,12.8
2022-10-11T09:56:56.071Z,11.6
2022-10-11T10:02:56.392Z,8.8
2022-10-11T10:08:46.888Z,9.1
2022-10-11T10:14:46.569Z,8.9
2022-10-11T10:20:37.710Z,9.2
2022-10-11T10:26:34.864Z,8.3
2022-10-11T10:32:34.885Z,8.6
2022-10-11T10:38:44.989Z,10
2022-10-11T10:44:38.263Z,9.9
2022-10-11T10:50:35.437Z,10.4
2022-10-11T10:56:31.366Z,10.4
2022-10-11T11:02:47.354Z,7.9
2022-10-11T11:08:37.989Z,7.9
2022-10-11T20:27:48.408Z,8.6
2022-10-11T20:46:04.165Z,10.1
2022-10-11T22:39:38.441Z,7.4
2022-10-11T22:45:31.368Z,6.3
2022-10-11T22:51:34.305Z,7
2022-10-11T22:57:32.618Z,9.1
2022-10-11T23:03:29.250Z,8.1
2022-10-11T23:09:43.257Z,7.2
2022-10-11T23:15:34.794Z,7.8
2022-10-11T23:21:28.698Z,6.8
2022-10-11T23:27:33.533Z,6.4
2022-10-11T23:33:28.313Z,6.1
2022-10-11T23:39:26.400Z,6.3
2022-10-11T23:45:29.437Z,5.8
2022-10-11T23:51:35.633Z,5.5
2022-10-11T23:57:42.815Z,5.6
